createdAt,value
2022-08-29T00:01:28.816Z,74.34
2022-08-29T00:03:58.033Z,74.81
2022-08-29T00:06:26.416Z,74.34
2022-08-29T00:08:54.130Z,74.47
2022-08-29T00:11:21.507Z,74.70
2022-08-29T00:13:49.034Z,75.16
2022-08-29T00:16:16.405Z,75.05
2022-08-29T00:18:43.521Z,75.05
2022-08-29T00:21:10.796Z,75.72
2022-08-29T00:23:37.891Z,75.47
2022-08-29T00:26:06.049Z,76.15
2022-08-29T00:28:33.673Z,75.87
2022-08-29T00:31:01.945Z,75.78
2022-08-29T00:33:29.499Z,76.06
2022-08-29T00:35:56.936Z,75.80
2022-08-29T00:38:27.628Z,75.94
2022-08-29T00:40:56.750Z,76.73
2022-08-29T00:43:27.958Z,76.49
2022-08-29T00:46:01.291Z,76.81
2022-08-29T00:48:29.350Z,76.71
2022-08-29T00:51:01.667Z,76.53
2022-08-29T00:53:54.345Z,77.22
2022-08-29T00:56:22.252Z,77.00
2022-08-29T00:58:57.625Z,76.70
2022-08-29T01:01:25.669Z,77.11
2022-08-29T01:03:54.060Z,77.22
2022-08-29T01:06:22.460Z,76.80
2022-08-29T01:08:57.432Z,77.20
2022-08-29T01:11:46.802Z,77.20
2022-08-29T01:14:15.190Z,78.11
2022-08-29T01:16:42.705Z,78.26
2022-08-29T01:19:31.644Z,78.33
2022-08-29T01:22:17.169Z,78.41
2022-08-29T01:24:51.107Z,79.24
2022-08-29T01:27:28.933Z,79.55
2022-08-29T01:29:56.783Z,79.84
2022-08-29T01:32:25.421Z,80.27
2022-08-29T01:34:53.650Z,80.37
2022-08-29T01:37:20.908Z,79.82
2022-08-29T01:39:48.368Z,80.02
2022-08-29T01:42:21.965Z,79.72
2022-08-29T01:44:58.496Z,79.88
2022-08-29T01:47:30.114Z,79.88
2022-08-29T01:49:57.757Z,79.93
2022-08-29T01:52:25.082Z,80.25
2022-08-29T01:54:52.397Z,80.07
2022-08-29T01:57:20.087Z,80.13
2022-08-29T01:59:47.678Z,80.17
2022-08-29T02:02:23.599Z,80.13
2022-08-29T02:04:51.029Z,80.10
2022-08-29T02:07:21.151Z,80.55
2022-08-29T02:09:48.652Z,81.16
2022-08-29T02:12:16.654Z,81.00
2022-08-29T02:14:45.146Z,81.52
2022-08-29T02:17:12.596Z,81.55
2022-08-29T02:19:40.207Z,81.33
2022-08-29T02:22:09.704Z,81.51
2022-08-29T02:24:36.962Z,81.15
2022-08-29T02:27:04.479Z,81.24
2022-08-29T02:29:37.321Z,81.68
2022-08-29T02:32:08.541Z,81.74
2022-08-29T02:34:36.870Z,81.65
2022-08-29T02:37:06.029Z,81.83
2022-08-29T02:39:34.448Z,82.15
2022-08-29T02:42:02.393Z,82.61
2022-08-29T02:44:29.843Z,82.61
2022-08-29T02:46:57.338Z,82.55
2022-08-29T02:49:24.445Z,82.34
2022-08-29T02:51:51.717Z,82.77
2022-08-29T02:54:19.020Z,83.14
2022-08-29T02:56:46.393Z,83.77
2022-08-29T02:59:14.392Z,83.69
2022-08-29T03:01:41.629Z,84.05
2022-08-29T03:04:08.904Z,83.83
2022-08-29T03:06:36.137Z,84.20
2022-08-29T03:09:03.437Z,84.48
2022-08-29T03:11:31.226Z,84.16
2022-08-29T03:13:58.261Z,84.35
2022-08-29T03:16:26.501Z,84.37
2022-08-29T03:18:54.543Z,84.02
2022-08-29T03:21:25.008Z,84.10
2022-08-29T03:23:53.023Z,83.93
2022-08-29T03:26:20.765Z,84.06
2022-08-29T03:28:48.396Z,83.31
2022-08-29T03:31:16.508Z,82.67
2022-08-29T03:33:43.864Z,83.21
2022-08-29T03:36:14.146Z,83.38
2022-08-29T03:38:43.780Z,83.94
2022-08-29T03:41:11.617Z,84.17
2022-08-29T03:43:39.035Z,84.34
2022-08-29T03:46:06.825Z,84.33
2022-08-29T03:48:34.073Z,83.90
2022-08-29T03:51:01.579Z,84.07
2022-08-29T03:53:30.771Z,84.16
2022-08-29T03:55:58.387Z,84.01
2022-08-29T03:58:25.902Z,83.66
2022-08-29T04:00:53.157Z,83.91
2022-08-29T04:03:21.956Z,84.02
2022-08-29T04:05:55.252Z,83.82
2022-08-29T04:08:23.124Z,84.19
2022-08-29T04:10:51.292Z,84.17
2022-08-29T04:13:18.938Z,84.00
2022-08-29T04:15:46.430Z,83.84
2022-08-29T04:18:13.633Z,83.85
2022-08-29T04:20:45.619Z,83.22
2022-08-29T04:23:14.236Z,83.12
2022-08-29T04:25:43.757Z,83.16
2022-08-29T04:28:14.309Z,83.60
2022-08-29T04:30:51.505Z,83.75
2022-08-29T04:33:22.950Z,83.82
2022-08-29T04:35:52.334Z,83.80
2022-08-29T04:38:20.393Z,83.55
2022-08-29T04:40:47.909Z,83.24
2022-08-29T04:43:15.617Z,83.04
2022-08-29T04:45:42.779Z,82.70
2022-08-29T04:48:11.149Z,82.62
2022-08-29T04:50:39.182Z,82.29
2022-08-29T04:53:06.399Z,81.88
2022-08-29T04:55:33.536Z,81.91
2022-08-29T04:58:01.538Z,82.26
2022-08-29T05:00:31.351Z,82.40
2022-08-29T05:02:59.633Z,82.25
2022-08-29T05:05:27.857Z,82.00
2022-08-29T05:07:55.246Z,81.93
2022-08-29T05:10:23.054Z,81.28
2022-08-29T05:12:50.306Z,80.98
2022-08-29T05:15:18.054Z,80.48
2022-08-29T05:17:45.583Z,80.33
2022-08-29T05:20:13.049Z,80.43
2022-08-29T05:22:42.405Z,80.26
2022-08-29T05:25:17.270Z,80.67
2022-08-29T05:27:46.930Z,80.56
2022-08-29T05:30:16.479Z,80.74
2022-08-29T05:33:01.422Z,80.42
2022-08-29T05:35:28.638Z,79.67
2022-08-29T05:37:55.898Z,78.60
2022-08-29T05:40:23.109Z,78.73
2022-08-29T05:42:50.550Z,77.67
2022-08-29T05:45:17.903Z,77.55
2022-08-29T05:47:45.320Z,77.79
2022-08-29T05:50:17.091Z,77.53
2022-08-29T05:52:45.439Z,77.85
2022-08-29T05:55:12.607Z,77.63
2022-08-29T05:57:40.167Z,77.56
2022-08-29T06:00:10.757Z,76.83
2022-08-29T06:02:40.998Z,76.51
2022-08-29T06:05:08.907Z,76.14
2022-08-29T06:07:38.058Z,75.47
2022-08-29T06:10:09.040Z,75.04
2022-08-29T06:12:37.658Z,74.90
2022-08-29T06:15:05.333Z,73.24
2022-08-29T06:17:34.111Z,71.74
2022-08-29T06:20:01.442Z,70.71
2022-08-29T06:22:31.137Z,69.75
2022-08-29T06:24:58.804Z,69.81
2022-08-29T06:27:26.064Z,69.21
2022-08-29T06:29:53.251Z,69.76
2022-08-29T06:32:21.198Z,69.80
2022-08-29T06:34:48.443Z,69.50
2022-08-29T06:37:16.207Z,69.62
2022-08-29T06:39:43.612Z,69.00
2022-08-29T06:42:10.726Z,69.47
2022-08-29T06:44:44.403Z,69.54
2022-08-29T06:47:12.181Z,67.76
2022-08-29T06:49:39.550Z,68.25
2022-08-29T06:52:06.988Z,68.05
2022-08-29T06:54:34.378Z,68.83
2022-08-29T06:57:01.692Z,67.52
2022-08-29T06:59:29.148Z,66.96
2022-08-29T07:01:56.830Z,66.57
2022-08-29T07:04:26.438Z,66.49
2022-08-29T07:06:54.673Z,65.68
2022-08-29T07:09:22.101Z,65.41
2022-08-29T07:11:49.558Z,64.65
2022-08-29T07:14:17.319Z,64.22
2022-08-29T07:16:44.755Z,64.08
2022-08-29T07:19:11.909Z,63.12
2022-08-29T07:21:39.941Z,62.93
2022-08-29T07:24:08.609Z,61.75
2022-08-29T07:26:42.564Z,61.85
2022-08-29T07:29:20.705Z,61.55
2022-08-29T07:31:49.014Z,61.64
2022-08-29T07:34:20.713Z,61.34
2022-08-29T07:36:49.216Z,61.14
2022-08-29T07:39:19.482Z,59.75
2022-08-29T07:41:46.900Z,59.01
2022-08-29T07:44:16.051Z,58.82
2022-08-29T07:46:44.178Z,57.76
2022-08-29T07:49:12.569Z,57.12
2022-08-29T07:51:44.171Z,56.84
2022-08-29T07:54:13.514Z,56.15
2022-08-29T07:56:41.690Z,55.42
2022-08-29T07:59:09.548Z,55.53
2022-08-29T08:01:37.826Z,55.61
2022-08-29T08:04:05.603Z,56.27
2022-08-29T08:06:35.871Z,55.38
2022-08-29T08:09:05.380Z,54.51
2022-08-29T08:11:32.809Z,53.74
2022-08-29T08:14:00.167Z,51.84
2022-08-29T08:16:28.421Z,51.18
2022-08-29T08:18:56.580Z,50.46
2022-08-29T08:21:25.685Z,49.18
2022-08-29T08:23:53.910Z,49.98
2022-08-29T08:26:21.364Z,48.04
2022-08-29T08:28:48.895Z,46.99
2022-08-29T08:31:17.948Z,44.27
2022-08-29T08:33:46.125Z,43.95
2022-08-29T08:36:26.268Z,42.68
2022-08-29T08:38:55.161Z,40.69
2022-08-29T08:41:27.307Z,39.90
2022-08-29T08:44:14.338Z,40.92
2022-08-29T08:46:45.110Z,40.44
2022-08-29T08:49:36.854Z,38.28
2022-08-29T08:52:14.183Z,37.95
2022-08-29T08:54:50.655Z,38.20
2022-08-29T08:57:20.153Z,38.10
2022-08-29T08:59:53.487Z,38.82
2022-08-29T09:02:35.520Z,38.30
2022-08-29T09:05:31.150Z,37.90
2022-08-29T09:08:17.226Z,37.52
2022-08-29T09:10:49.445Z,36.35
2022-08-29T09:13:58.401Z,36.89
2022-08-29T09:16:31.747Z,37.87
2022-08-29T09:19:04.963Z,38.72
2022-08-29T09:21:42.927Z,38.89
2022-08-29T09:24:17.619Z,38.99
2022-08-29T09:26:44.786Z,37.91
2022-08-29T09:29:14.005Z,37.96
2022-08-29T09:31:41.818Z,37.76
2022-08-29T09:34:13.143Z,37.93
2022-08-29T09:36:53.158Z,37.99
2022-08-29T09:39:28.675Z,38.15
2022-08-29T09:42:13.967Z,38.31
2022-08-29T09:44:51.498Z,36.82
2022-08-29T09:47:30.612Z,36.59
2022-08-29T09:50:03.024Z,36.44
2022-08-29T09:52:31.119Z,35.91
2022-08-29T09:55:27.904Z,35.41
2022-08-29T09:58:10.419Z,35.12
2022-08-29T10:00:45.007Z,35.92
2022-08-29T10:03:22.872Z,36.76
2022-08-29T10:06:07.652Z,36.00
2022-08-29T10:08:39.556Z,33.98
2022-08-29T10:11:21.179Z,34.33
2022-08-29T10:13:59.186Z,35.02
2022-08-29T10:16:41.699Z,35.47
2022-08-29T10:19:34.131Z,35.60
2022-08-29T10:22:02.286Z,35.38
2022-08-29T10:24:32.011Z,33.95
2022-08-29T10:27:10.890Z,35.00
2022-08-29T10:30:00.111Z,35.94
2022-08-29T10:32:35.636Z,37.95
2022-08-29T10:35:30.958Z,39.77
2022-08-29T10:38:05.086Z,39.92
2022-08-29T10:40:52.707Z,39.92
2022-08-29T10:43:35.553Z,40.21
2022-08-29T10:46:12.379Z,39.83
2022-08-29T10:48:46.349Z,39.99
2022-08-29T10:51:20.063Z,40.88
2022-08-29T10:54:03.440Z,40.25
2022-08-29T10:56:43.078Z,40.71
2022-08-29T10:59:25.258Z,40.52
2022-08-29T11:01:56.061Z,40.08
2022-08-29T11:04:43.719Z,38.17
2022-08-29T11:07:23.032Z,39.80
2022-08-29T11:09:55.630Z,39.60
2022-08-29T11:12:47.108Z,39.03
2022-08-29T11:15:28.155Z,39.14
2022-08-29T11:18:26.475Z,38.81
2022-08-29T11:21:00.509Z,37.87
2022-08-29T11:23:46.855Z,38.51
2022-08-29T11:26:23.521Z,37.81
2022-08-29T11:29:02.086Z,37.29
2022-08-29T11:31:56.919Z,37.60
2022-08-29T11:34:24.216Z,37.34
2022-08-29T11:37:28.072Z,36.00
2022-08-29T11:40:07.688Z,35.35
2022-08-29T11:42:55.451Z,35.13
2022-08-29T11:45:36.949Z,36.11
2022-08-29T11:48:32.972Z,36.28
2022-08-29T11:51:31.710Z,35.97
2022-08-29T11:54:24.944Z,32.97
2022-08-29T11:57:03.059Z,33.14
2022-08-29T11:59:51.480Z,33.72
2022-08-29T12:02:28.257Z,31.72
2022-08-29T12:04:59.541Z,30.99
2022-08-29T12:07:49.108Z,30.23
2022-08-29T12:10:23.753Z,30.28
2022-08-29T12:13:01.218Z,30.60
2022-08-29T12:15:34.779Z,30.69
2022-08-29T12:18:22.519Z,31.93
2022-08-29T12:20:57.137Z,31.73
2022-08-29T12:23:36.389Z,32.05
2022-08-29T12:26:22.095Z,32.35
2022-08-29T12:29:01.934Z,30.16
2022-08-29T12:32:18.154Z,30.73
2022-08-29T12:35:11.758Z,30.09
2022-08-29T12:37:55.194Z,30.48
2022-08-29T12:41:04.630Z,31.30
2022-08-29T12:43:42.755Z,31.48
2022-08-29T12:46:25.775Z,29.18
2022-08-29T12:49:03.544Z,29.52
2022-08-29T12:51:33.221Z,29.58
2022-08-29T12:54:00.673Z,29.86
2022-08-29T12:56:28.302Z,28.99
2022-08-29T12:59:00.321Z,29.85
2022-08-29T13:01:33.776Z,31.56
2022-08-29T13:04:03.519Z,32.35
2022-08-29T13:06:33.574Z,31.56
2022-08-29T13:09:01.637Z,30.60
2022-08-29T13:11:32.067Z,30.01
2022-08-29T13:14:12.265Z,28.67
2022-08-29T13:16:41.450Z,28.91
2022-08-29T13:19:20.595Z,29.27
2022-08-29T13:21:48.264Z,29.17
2022-08-29T13:24:22.418Z,28.62
2022-08-29T13:27:04.841Z,28.72
2022-08-29T13:29:38.868Z,28.57
2022-08-29T13:32:18.883Z,28.56
2022-08-29T13:35:16.024Z,28.41
2022-08-29T13:37:46.741Z,29.10
2022-08-29T13:40:57.455Z,28.33
2022-08-29T13:43:45.966Z,29.18
2022-08-29T13:46:15.005Z,28.76
2022-08-29T13:48:43.642Z,28.76
2022-08-29T13:51:11.706Z,28.47
2022-08-29T13:53:39.780Z,28.70
2022-08-29T13:56:32.515Z,28.15
2022-08-29T13:59:00.910Z,27.99
2022-08-29T14:01:29.836Z,28.38
2022-08-29T14:04:01.253Z,27.72
2022-08-29T14:06:34.215Z,28.26
2022-08-29T14:09:02.225Z,28.24
2022-08-29T14:11:29.764Z,28.66
2022-08-29T14:13:57.522Z,28.85
2022-08-29T14:16:25.664Z,28.64
2022-08-29T14:18:53.833Z,29.34
2022-08-29T14:21:21.092Z,29.07
2022-08-29T14:23:48.977Z,29.79
2022-08-29T14:26:17.610Z,28.39
2022-08-29T14:28:48.470Z,29.22
2022-08-29T14:31:16.784Z,28.38
2022-08-29T14:33:45.049Z,28.58
2022-08-29T14:36:12.796Z,28.04
2022-08-29T14:38:40.033Z,28.12
2022-08-29T14:41:07.777Z,28.23
2022-08-29T14:43:39.610Z,28.13
2022-08-29T14:46:07.963Z,28.37
2022-08-29T14:48:35.734Z,28.80
2022-08-29T14:51:04.074Z,28.70
2022-08-29T14:53:33.986Z,28.44
2022-08-29T14:56:05.524Z,28.72
2022-08-29T14:58:32.979Z,28.67
2022-08-29T15:01:00.949Z,28.98
2022-08-29T15:03:28.286Z,28.63
2022-08-29T15:05:55.571Z,28.48
2022-08-29T15:08:23.129Z,28.50
2022-08-29T15:10:50.696Z,28.85
2022-08-29T15:13:18.348Z,29.27
2022-08-29T15:15:45.949Z,28.46
2022-08-29T15:18:30.519Z,30.09
2022-08-29T15:21:02.215Z,30.12
2022-08-29T15:23:29.782Z,30.22
2022-08-29T15:25:57.215Z,30.76
2022-08-29T15:28:24.589Z,30.84
2022-08-29T15:30:52.436Z,32.29
2022-08-29T15:33:19.891Z,32.34
2022-08-29T15:35:47.451Z,31.58
2022-08-29T15:38:14.977Z,32.08
2022-08-29T15:40:42.863Z,33.22
2022-08-29T15:43:10.801Z,33.47
2022-08-29T15:45:39.191Z,33.26
2022-08-29T15:48:11.605Z,33.16
2022-08-29T15:50:41.623Z,32.95
2022-08-29T15:53:09.553Z,33.02
2022-08-29T15:55:39.135Z,33.28
2022-08-29T15:58:09.782Z,33.54
2022-08-29T16:00:37.086Z,33.19
2022-08-29T16:03:05.249Z,33.48
2022-08-29T16:05:33.767Z,33.93
2022-08-29T16:08:02.090Z,34.45
2022-08-29T16:10:30.084Z,34.42
2022-08-29T16:12:58.516Z,34.49
2022-08-29T16:15:27.821Z,33.24
2022-08-29T16:17:55.223Z,33.57
2022-08-29T16:20:22.726Z,33.94
2022-08-29T16:22:50.133Z,34.19
2022-08-29T16:25:17.980Z,33.92
2022-08-29T16:27:45.211Z,33.81
2022-08-29T16:30:13.373Z,34.11
2022-08-29T16:32:41.021Z,34.09
2022-08-29T16:35:10.443Z,34.42
2022-08-29T16:37:37.894Z,34.90
2022-08-29T16:40:07.213Z,34.85
2022-08-29T16:42:37.780Z,34.98
2022-08-29T16:45:09.934Z,35.38
2022-08-29T16:47:37.775Z,35.04
2022-08-29T16:50:07.404Z,35.48
2022-08-29T16:52:34.887Z,35.90
2022-08-29T16:55:04.670Z,35.98
2022-08-29T16:57:32.322Z,36.16
2022-08-29T16:59:59.585Z,36.49
2022-08-29T17:02:26.876Z,36.99
2022-08-29T17:04:54.291Z,37.53
2022-08-29T17:07:21.839Z,38.63
2022-08-29T17:09:48.971Z,38.72
2022-08-29T17:12:16.346Z,39.50
2022-08-29T17:14:43.404Z,39.52
2022-08-29T17:17:10.756Z,40.20
2022-08-29T17:19:39.037Z,40.46
2022-08-29T17:22:06.382Z,40.86
2022-08-29T17:24:33.578Z,41.01
2022-08-29T17:27:01.715Z,41.33
2022-08-29T17:29:29.031Z,41.81
2022-08-29T17:31:56.290Z,41.92
2022-08-29T17:34:23.934Z,42.07
2022-08-29T17:36:51.400Z,41.98
2022-08-29T17:39:20.072Z,41.93
2022-08-29T17:41:52.459Z,42.02
2022-08-29T17:44:20.131Z,42.12
2022-08-29T17:46:47.427Z,42.68
2022-08-29T17:49:14.838Z,42.99
2022-08-29T17:51:42.646Z,42.85
2022-08-29T17:54:14.685Z,43.70
2022-08-29T17:56:51.433Z,41.74
2022-08-29T17:59:20.550Z,41.07
2022-08-29T18:01:48.459Z,41.71
2022-08-29T18:04:17.039Z,42.57
2022-08-29T18:06:45.001Z,42.50
2022-08-29T18:09:12.301Z,42.51
2022-08-29T18:11:42.171Z,42.62
2022-08-29T18:14:10.199Z,42.38
2022-08-29T18:16:43.568Z,42.25
2022-08-29T18:19:13.571Z,43.11
2022-08-29T18:21:43.235Z,43.08
2022-08-29T18:28:41.632Z,44.73
2022-08-29T18:31:10.209Z,45.35
2022-08-29T18:33:59.458Z,46.17
2022-08-29T18:36:27.284Z,46.17
2022-08-29T18:38:54.570Z,46.37
2022-08-29T18:41:21.673Z,46.32
2022-08-29T18:43:49.713Z,46.54
2022-08-29T18:46:17.137Z,46.88
2022-08-29T18:48:44.939Z,47.16
2022-08-29T18:51:12.345Z,46.91
2022-08-29T18:53:39.977Z,47.10
2022-08-29T18:56:07.697Z,47.38
2022-08-29T18:58:36.173Z,47.54
2022-08-29T19:01:12.066Z,47.52
2022-08-29T19:03:40.674Z,48.50
2022-08-29T19:06:08.156Z,48.92
2022-08-29T19:08:35.363Z,49.18
2022-08-29T19:11:03.847Z,49.50
2022-08-29T19:13:31.373Z,49.66
2022-08-29T19:16:00.735Z,49.75
2022-08-29T19:18:27.947Z,50.29
2022-08-29T19:21:07.649Z,50.49
2022-08-29T19:23:52.684Z,50.75
2022-08-29T19:26:30.792Z,51.17
2022-08-29T19:29:01.688Z,51.45
2022-08-29T19:31:33.052Z,51.98
2022-08-29T19:34:00.879Z,52.40
2022-08-29T19:36:28.078Z,52.84
2022-08-29T19:38:56.554Z,52.65
2022-08-29T19:41:25.120Z,52.72
2022-08-29T19:43:54.077Z,52.66
2022-08-29T19:46:36.189Z,53.06
2022-08-29T19:51:36.231Z,53.06
2022-08-29T19:54:06.003Z,52.53
2022-08-29T19:56:34.028Z,52.21
2022-08-29T19:59:01.481Z,52.36
2022-08-29T20:01:29.329Z,52.84
2022-08-29T20:03:56.537Z,51.26
2022-08-29T20:06:24.294Z,52.46
2022-08-29T20:08:51.501Z,52.92
2022-08-29T20:11:23.797Z,53.11
2022-08-29T20:13:52.991Z,53.61
2022-08-29T20:16:28.647Z,54.01
2022-08-29T20:18:57.348Z,54.32
2022-08-29T20:21:26.475Z,54.35
2022-08-29T20:23:58.229Z,54.62
2022-08-29T20:26:28.942Z,55.19
2022-08-29T20:28:56.290Z,55.34
2022-08-29T20:31:23.473Z,54.72
2022-08-29T20:33:51.272Z,55.04
2022-08-29T20:36:39.858Z,55.45
2022-08-29T20:39:09.599Z,55.66
2022-08-29T20:41:38.764Z,55.56
2022-08-29T20:44:07.983Z,56.10
2022-08-29T20:46:41.356Z,56.55
2022-08-29T20:49:14.189Z,56.64
2022-08-29T20:51:45.903Z,56.91
2022-08-29T20:54:15.314Z,57.47
2022-08-29T20:56:43.244Z,57.44
2022-08-29T20:59:10.640Z,57.58
2022-08-29T21:01:38.301Z,57.52
2022-08-29T21:04:25.017Z,57.25
2022-08-29T21:06:56.847Z,58.06
2022-08-29T21:09:26.812Z,58.35
2022-08-29T21:11:57.923Z,59.03
2022-08-29T21:14:28.131Z,58.94
2022-08-29T21:16:57.038Z,59.63
2022-08-29T21:19:26.460Z,59.77
2022-08-29T21:21:53.986Z,59.58
2022-08-29T21:24:21.140Z,59.52
2022-08-29T21:26:48.494Z,59.39
2022-08-29T21:29:16.129Z,59.19
2022-08-29T21:31:43.432Z,59.56
2022-08-29T21:34:12.836Z,59.89
2022-08-29T21:36:41.724Z,60.01
2022-08-29T21:39:12.154Z,60.46
2022-08-29T21:41:45.235Z,60.61
2022-08-29T21:44:14.236Z,60.76
2022-08-29T21:46:43.942Z,60.55
2022-08-29T21:49:17.078Z,60.84
2022-08-29T21:51:45.962Z,60.98
2022-08-29T21:54:15.371Z,61.01
2022-08-29T21:56:44.935Z,60.69
2022-08-29T21:59:21.513Z,60.71
2022-08-29T22:01:52.669Z,60.69
2022-08-29T22:04:28.404Z,61.12
2022-08-29T22:06:58.241Z,61.29
2022-08-29T22:09:27.343Z,61.87
2022-08-29T22:11:54.827Z,61.24
2022-08-29T22:14:42.083Z,61.13
2022-08-29T22:17:09.330Z,61.29
2022-08-29T22:19:47.363Z,61.56
2022-08-29T22:22:19.778Z,62.04
2022-08-29T22:24:47.577Z,62.49
2022-08-29T22:27:16.015Z,62.86
2022-08-29T22:29:46.689Z,63.16
2022-08-29T22:32:14.111Z,63.44
2022-08-29T22:34:41.476Z,64.00
2022-08-29T22:37:08.897Z,63.96
2022-08-29T22:39:36.084Z,64.22
2022-08-29T22:42:03.466Z,63.83
2022-08-29T22:47:19.466Z,64.67
2022-08-29T22:49:48.355Z,64.99
2022-08-29T22:52:16.798Z,65.52
2022-08-29T22:54:44.126Z,65.87
2022-08-29T22:57:15.311Z,66.02
2022-08-29T22:59:43.813Z,66.17
2022-08-29T23:02:12.369Z,65.98
2022-08-29T23:04:40.176Z,66.27
2022-08-29T23:07:07.966Z,66.62
2022-08-29T23:09:35.898Z,67.15
2022-08-29T23:12:05.865Z,67.66
2022-08-29T23:14:36.318Z,67.25
2022-08-29T23:17:06.417Z,67.61
2022-08-29T23:19:34.420Z,67.81
2022-08-29T23:22:02.750Z,67.32
2022-08-29T23:24:31.318Z,67.37
2022-08-29T23:26:59.440Z,67.29
2022-08-29T23:29:27.183Z,67.38
2022-08-29T23:31:54.920Z,67.26
2022-08-29T23:34:22.781Z,67.47
2022-08-29T23:36:52.031Z,67.41
2022-08-29T23:39:20.110Z,67.98
2022-08-29T23:41:49.166Z,68.07
2022-08-29T23:44:17.614Z,68.28
2022-08-29T23:46:45.118Z,68.69
2022-08-29T23:49:12.579Z,68.94
2022-08-29T23:51:39.923Z,68.89
2022-08-29T23:54:08.298Z,68.37
2022-08-29T23:56:35.485Z,68.41
2022-08-29T23:59:04.045Z,68.83
